createdAt,value
2023-03-29T00:01:35.797Z,14.01
2023-03-29T00:04:04.709Z,13.99
2023-03-29T00:06:31.424Z,13.96
2023-03-29T00:08:57.885Z,13.91
2023-03-29T00:11:25.223Z,13.94
2023-03-29T00:13:52.051Z,13.92
2023-03-29T00:16:18.857Z,13.94
2023-03-29T00:18:45.372Z,13.97
2023-03-29T00:21:12.278Z,13.79
2023-03-29T00:23:38.871Z,13.81
2023-03-29T00:26:07.808Z,13.67
2023-03-29T00:28:34.661Z,13.84
2023-03-29T00:31:10.823Z,13.87
2023-03-29T00:33:38.625Z,13.91
2023-03-29T00:36:06.438Z,13.95
2023-03-29T00:38:33.175Z,13.82
2023-03-29T00:41:00.348Z,13.76
2023-03-29T00:43:27.525Z,13.83
2023-03-29T00:45:54.065Z,13.81
2023-03-29T00:48:27.517Z,13.71
2023-03-29T00:50:56.319Z,13.52
2023-03-29T00:53:34.898Z,13.78
2023-03-29T00:56:20.826Z,13.75
2023-03-29T00:59:13.055Z,13.66
2023-03-29T01:01:50.228Z,13.71
2023-03-29T01:04:25.427Z,13.75
2023-03-29T01:07:02.993Z,13.70
2023-03-29T01:09:35.443Z,13.78
2023-03-29T01:12:09.837Z,13.65
2023-03-29T01:14:45.804Z,13.82
2023-03-29T01:17:12.331Z,13.89
2023-03-29T01:19:51.868Z,13.89
2023-03-29T01:22:33.586Z,13.94
2023-03-29T01:25:34.582Z,13.93
2023-03-29T01:28:13.373Z,13.92
2023-03-29T01:30:48.203Z,13.73
2023-03-29T01:33:20.940Z,13.60
2023-03-29T01:36:24.450Z,13.38
2023-03-29T01:38:57.351Z,12.29
2023-03-29T01:41:35.576Z,12.86
2023-03-29T01:44:11.497Z,12.39
2023-03-29T01:46:47.852Z,12.80
2023-03-29T01:49:29.430Z,13.05
2023-03-29T01:52:06.474Z,12.64
2023-03-29T01:54:44.792Z,12.28
2023-03-29T01:57:12.467Z,12.55
2023-03-29T01:59:43.672Z,13.19
2023-03-29T02:02:15.846Z,13.38
2023-03-29T02:04:48.894Z,12.97
2023-03-29T02:07:19.166Z,13.44
2023-03-29T02:09:49.323Z,13.58
2023-03-29T02:12:17.077Z,13.56
2023-03-29T02:14:43.622Z,13.65
2023-03-29T02:17:22.565Z,13.87
2023-03-29T02:20:10.248Z,13.89
2023-03-29T02:22:46.716Z,14.05
2023-03-29T02:25:13.543Z,14.18
2023-03-29T02:27:40.217Z,14.21
2023-03-29T02:30:10.025Z,13.94
2023-03-29T02:33:14.848Z,13.63
2023-03-29T02:35:53.908Z,13.40
2023-03-29T02:38:23.516Z,12.98
2023-03-29T02:40:50.041Z,12.67
2023-03-29T02:43:17.118Z,11.96
2023-03-29T02:45:45.758Z,12.48
2023-03-29T02:48:17.953Z,13.02
2023-03-29T02:50:49.364Z,12.72
2023-03-29T02:53:20.511Z,13.51
2023-03-29T02:55:47.029Z,13.73
2023-03-29T02:58:14.800Z,13.80
2023-03-29T03:00:47.253Z,13.93
2023-03-29T03:03:14.898Z,14.08
2023-03-29T03:05:41.424Z,14.10
2023-03-29T03:08:07.888Z,14.18
2023-03-29T03:10:35.737Z,14.26
2023-03-29T03:13:02.790Z,13.67
2023-03-29T03:15:29.294Z,14.05
2023-03-29T03:17:55.749Z,13.98
2023-03-29T03:20:22.207Z,14.15
2023-03-29T03:22:49.453Z,14.09
2023-03-29T03:25:17.762Z,13.92
2023-03-29T03:27:44.346Z,14.21
2023-03-29T03:30:11.510Z,14.31
2023-03-29T03:32:38.152Z,14.37
2023-03-29T03:35:06.008Z,14.34
2023-03-29T03:37:32.569Z,14.44
2023-03-29T03:39:59.100Z,14.46
2023-03-29T03:42:28.441Z,14.46
2023-03-29T03:44:55.580Z,14.52
2023-03-29T03:47:22.896Z,14.47
2023-03-29T03:49:49.414Z,14.40
2023-03-29T03:52:15.956Z,14.29
2023-03-29T03:54:42.449Z,14.41
2023-03-29T03:57:09.015Z,14.30
2023-03-29T03:59:35.593Z,14.35
2023-03-29T04:02:02.118Z,14.18
2023-03-29T04:04:28.613Z,14.24
2023-03-29T04:06:55.126Z,14.30
2023-03-29T04:09:24.160Z,14.21
2023-03-29T04:11:50.718Z,13.86
2023-03-29T04:14:17.192Z,13.94
2023-03-29T04:16:43.778Z,13.79
2023-03-29T04:19:10.231Z,13.66
2023-03-29T04:21:36.744Z,13.85
2023-03-29T04:24:03.334Z,13.79
2023-03-29T04:26:29.832Z,13.62
2023-03-29T04:28:56.439Z,13.81
2023-03-29T04:31:23.061Z,13.80
2023-03-29T04:33:49.574Z,13.77
2023-03-29T04:36:16.153Z,13.70
2023-03-29T04:38:47.422Z,13.71
2023-03-29T04:41:14.787Z,13.68
2023-03-29T04:43:41.285Z,13.71
2023-03-29T04:46:07.949Z,13.75
2023-03-29T04:48:34.453Z,13.69
2023-03-29T04:51:01.074Z,13.77
2023-03-29T04:53:27.736Z,13.79
2023-03-29T04:55:54.182Z,13.56
2023-03-29T04:58:22.165Z,13.68
2023-03-29T05:00:50.221Z,12.51
2023-03-29T05:03:16.829Z,12.02
2023-03-29T05:05:43.289Z,11.96
2023-03-29T05:08:09.799Z,11.43
2023-03-29T05:10:37.149Z,11.31
2023-03-29T05:13:03.631Z,12.27
2023-03-29T05:15:31.001Z,12.50
2023-03-29T05:17:57.580Z,12.88
2023-03-29T05:20:25.275Z,13.05
2023-03-29T05:22:51.862Z,12.27
2023-03-29T05:25:18.363Z,12.74
2023-03-29T05:27:45.005Z,13.32
2023-03-29T05:30:13.813Z,13.62
2023-03-29T05:32:40.572Z,13.81
2023-03-29T05:35:07.452Z,13.54
2023-03-29T05:37:34.317Z,13.91
2023-03-29T05:40:05.965Z,14.05
2023-03-29T05:42:32.852Z,14.15
2023-03-29T05:44:59.442Z,14.23
2023-03-29T05:47:25.956Z,13.98
2023-03-29T05:49:52.523Z,14.19
2023-03-29T05:52:19.036Z,14.27
2023-03-29T05:54:45.526Z,13.77
2023-03-29T05:57:12.092Z,14.07
2023-03-29T05:59:38.620Z,14.15
2023-03-29T06:02:05.241Z,14.16
2023-03-29T06:04:31.871Z,14.30
2023-03-29T06:06:58.546Z,14.15
2023-03-29T06:09:25.029Z,14.46
2023-03-29T06:11:51.547Z,14.49
2023-03-29T06:14:18.028Z,14.60
2023-03-29T06:16:44.585Z,14.74
2023-03-29T06:19:11.077Z,14.69
2023-03-29T06:21:37.569Z,14.91
2023-03-29T06:24:04.402Z,14.97
2023-03-29T06:26:30.933Z,15.06
2023-03-29T06:28:57.553Z,15.01
2023-03-29T06:31:24.069Z,14.97
2023-03-29T06:33:50.577Z,15.07
2023-03-29T06:36:17.058Z,15.07
2023-03-29T06:38:43.863Z,15.07
2023-03-29T06:41:10.401Z,15.02
2023-03-29T06:43:37.559Z,15.12
2023-03-29T06:46:04.353Z,15.20
2023-03-29T06:48:30.932Z,15.28
2023-03-29T06:50:57.401Z,15.30
2023-03-29T06:53:23.858Z,15.37
2023-03-29T06:55:51.008Z,15.38
2023-03-29T06:58:17.520Z,15.48
2023-03-29T07:00:44.020Z,15.47
2023-03-29T07:03:10.531Z,15.62
2023-03-29T07:05:37.216Z,15.61
2023-03-29T07:08:03.715Z,15.81
2023-03-29T07:10:42.953Z,15.85
2023-03-29T07:13:11.015Z,15.85
2023-03-29T07:15:37.600Z,15.86
2023-03-29T07:18:04.126Z,15.91
2023-03-29T07:20:31.814Z,15.95
2023-03-29T07:22:58.394Z,15.98
2023-03-29T07:25:26.590Z,16.01
2023-03-29T07:27:53.595Z,15.98
2023-03-29T07:30:24.079Z,16.02
2023-03-29T07:32:51.527Z,15.97
2023-03-29T07:35:18.417Z,16.07
2023-03-29T07:37:45.575Z,16.20
2023-03-29T07:40:15.784Z,15.98
2023-03-29T07:42:43.933Z,16.08
2023-03-29T07:45:11.642Z,16.16
2023-03-29T07:47:38.157Z,16.20
2023-03-29T07:50:05.140Z,16.17
2023-03-29T07:52:31.643Z,16.28
2023-03-29T07:54:58.223Z,16.35
2023-03-29T07:57:25.946Z,16.49
2023-03-29T07:59:53.789Z,16.63
2023-03-29T08:02:20.386Z,16.68
2023-03-29T08:04:47.642Z,16.53
2023-03-29T08:07:17.647Z,16.46
2023-03-29T08:09:45.417Z,16.52
2023-03-29T08:12:12.006Z,16.54
2023-03-29T08:14:38.584Z,16.57
2023-03-29T08:17:07.468Z,16.65
2023-03-29T08:19:34.296Z,16.63
2023-03-29T08:22:00.757Z,16.74
2023-03-29T08:24:27.260Z,16.82
2023-03-29T08:26:53.788Z,16.85
2023-03-29T08:29:20.344Z,16.86
2023-03-29T08:31:46.821Z,16.71
2023-03-29T08:34:13.836Z,16.86
2023-03-29T08:36:40.353Z,17.03
2023-03-29T08:39:06.973Z,17.10
2023-03-29T08:42:00.511Z,17.23
2023-03-29T08:44:45.319Z,17.32
2023-03-29T08:47:33.387Z,17.46
2023-03-29T08:49:59.961Z,17.70
2023-03-29T08:52:45.291Z,17.83
2023-03-29T08:55:20.263Z,17.89
2023-03-29T08:57:50.791Z,17.21
2023-03-29T09:00:25.513Z,17.68
2023-03-29T09:02:54.011Z,17.80
2023-03-29T09:05:29.300Z,17.52
2023-03-29T09:07:55.846Z,17.65
2023-03-29T09:10:39.412Z,17.70
2023-03-29T09:13:17.337Z,17.76
2023-03-29T09:15:49.285Z,17.84
2023-03-29T09:18:45.090Z,17.76
2023-03-29T09:21:41.823Z,17.81
2023-03-29T09:24:42.857Z,17.97
2023-03-29T09:27:15.424Z,17.98
2023-03-29T09:30:06.906Z,17.97
2023-03-29T09:32:49.541Z,17.87
2023-03-29T09:35:29.323Z,17.82
2023-03-29T09:37:56.824Z,18.01
2023-03-29T09:40:39.823Z,17.89
2023-03-29T09:43:11.984Z,17.91
2023-03-29T09:45:40.863Z,17.87
2023-03-29T09:48:19.455Z,17.91
2023-03-29T09:50:49.248Z,17.91
2023-03-29T09:53:16.089Z,17.82
2023-03-29T09:55:47.748Z,17.84
2023-03-29T09:58:27.511Z,17.96
2023-03-29T10:00:58.687Z,17.92
2023-03-29T10:03:28.548Z,18.00
2023-03-29T10:05:59.261Z,17.93
2023-03-29T10:08:29.333Z,17.95
2023-03-29T10:11:01.257Z,17.97
2023-03-29T10:13:31.150Z,17.84
2023-03-29T10:16:03.485Z,17.95
2023-03-29T10:18:38.844Z,18.06
2023-03-29T10:21:05.933Z,18.08
2023-03-29T10:23:36.933Z,18.11
2023-03-29T10:26:08.256Z,18.22
2023-03-29T10:28:37.933Z,18.27
2023-03-29T10:31:05.154Z,18.28
2023-03-29T10:33:35.085Z,18.10
2023-03-29T10:36:06.567Z,18.12
2023-03-29T10:38:36.257Z,18.13
2023-03-29T10:41:08.760Z,18.14
2023-03-29T10:43:44.146Z,18.01
2023-03-29T10:46:18.810Z,18.04
2023-03-29T10:48:48.597Z,18.03
2023-03-29T10:51:16.981Z,18.04
2023-03-29T10:53:43.580Z,17.92
2023-03-29T10:56:42.277Z,17.64
2023-03-29T10:59:27.281Z,17.65
2023-03-29T11:02:53.342Z,16.95
2023-03-29T11:05:41.240Z,16.29
2023-03-29T11:08:25.192Z,16.87
2023-03-29T11:11:29.708Z,16.78
2023-03-29T11:14:16.940Z,16.96
2023-03-29T11:17:07.773Z,15.97
2023-03-29T11:19:57.233Z,15.95
2023-03-29T11:22:58.769Z,16.78
2023-03-29T11:25:26.681Z,17.01
2023-03-29T11:28:14.611Z,17.14
2023-03-29T11:30:57.331Z,17.28
2023-03-29T11:34:01.392Z,17.46
2023-03-29T11:36:39.910Z,17.60
2023-03-29T11:39:30.346Z,17.75
2023-03-29T11:42:12.167Z,17.77
2023-03-29T11:44:43.788Z,17.80
2023-03-29T11:47:19.832Z,18.15
2023-03-29T11:50:03.363Z,18.31
2023-03-29T11:52:48.746Z,18.53
2023-03-29T11:55:22.534Z,18.26
2023-03-29T11:58:18.617Z,18.29
2023-03-29T12:01:01.660Z,18.32
2023-03-29T12:03:41.558Z,18.37
2023-03-29T12:06:21.564Z,18.21
2023-03-29T12:09:07.754Z,18.40
2023-03-29T12:12:02.045Z,18.55
2023-03-29T12:15:13.384Z,18.69
2023-03-29T12:17:51.593Z,18.61
2023-03-29T12:20:23.834Z,18.92
2023-03-29T12:22:50.613Z,19.14
2023-03-29T12:25:24.905Z,19.36
2023-03-29T12:28:20.822Z,19.45
2023-03-29T12:31:00.505Z,19.63
2023-03-29T12:33:43.887Z,19.76
2023-03-29T12:36:47.379Z,20.11
2023-03-29T12:39:18.220Z,20.20
2023-03-29T12:41:45.844Z,20.38
2023-03-29T12:44:16.419Z,20.57
2023-03-29T12:46:44.132Z,20.62
2023-03-29T12:49:23.627Z,20.76
2023-03-29T12:51:50.224Z,20.95
2023-03-29T12:54:22.509Z,21.04
2023-03-29T12:56:52.076Z,21.23
2023-03-29T12:59:39.810Z,21.36
2023-03-29T13:02:12.433Z,21.43
2023-03-29T13:04:54.818Z,21.39
2023-03-29T13:07:24.227Z,21.24
2023-03-29T13:09:56.790Z,21.21
2023-03-29T13:12:36.175Z,21.17
2023-03-29T13:15:16.463Z,21.07
2023-03-29T13:18:19.399Z,21.18
2023-03-29T13:20:58.815Z,21.13
2023-03-29T13:24:00.337Z,21.57
2023-03-29T13:26:57.428Z,21.87
2023-03-29T13:29:44.585Z,22.01
2023-03-29T13:32:31.806Z,22.17
2023-03-29T13:35:22.456Z,22.49
2023-03-29T13:38:04.231Z,22.39
2023-03-29T13:40:32.604Z,22.53
2023-03-29T13:43:18.815Z,22.42
2023-03-29T13:45:57.678Z,22.55
2023-03-29T13:48:36.443Z,22.53
2023-03-29T13:51:02.881Z,22.49
2023-03-29T13:53:39.297Z,22.67
2023-03-29T13:56:10.778Z,22.80
2023-03-29T13:58:43.119Z,23.08
2023-03-29T14:01:53.012Z,23.36
2023-03-29T14:04:25.302Z,23.29
2023-03-29T14:06:56.055Z,23.46
2023-03-29T14:09:29.608Z,23.50
2023-03-29T14:11:58.956Z,23.43
2023-03-29T14:14:29.839Z,23.48
2023-03-29T14:16:57.101Z,23.44
2023-03-29T14:19:31.625Z,23.47
2023-03-29T14:22:01.155Z,23.77
2023-03-29T14:24:37.420Z,24.13
2023-03-29T14:27:06.363Z,24.23
2023-03-29T14:29:34.932Z,24.33
2023-03-29T14:32:13.763Z,24.27
2023-03-29T14:34:40.773Z,24.23
2023-03-29T14:37:10.044Z,24.19
2023-03-29T14:39:37.376Z,23.81
2023-03-29T14:42:10.370Z,23.66
2023-03-29T14:44:36.911Z,23.69
2023-03-29T14:47:03.816Z,23.70
2023-03-29T14:49:32.147Z,23.71
2023-03-29T14:51:59.176Z,23.59
2023-03-29T14:54:29.851Z,23.47
2023-03-29T14:56:56.470Z,23.44
2023-03-29T14:59:35.898Z,23.33
2023-03-29T15:02:02.685Z,23.30
2023-03-29T15:04:36.044Z,23.21
2023-03-29T15:07:04.399Z,23.19
2023-03-29T15:09:34.629Z,23.28
2023-03-29T15:12:03.239Z,23.37
2023-03-29T15:14:33.291Z,23.41
2023-03-29T15:17:06.545Z,23.19
2023-03-29T15:19:33.895Z,22.60
2023-03-29T15:22:04.539Z,22.19
2023-03-29T15:24:33.553Z,22.61
2023-03-29T15:27:03.948Z,22.49
2023-03-29T15:29:36.009Z,22.76
2023-03-29T15:32:02.895Z,22.80
2023-03-29T15:34:31.654Z,22.79
2023-03-29T15:37:00.566Z,22.81
2023-03-29T15:39:28.859Z,22.78
2023-03-29T15:41:57.733Z,22.75
2023-03-29T15:44:31.776Z,22.89
2023-03-29T15:46:58.384Z,22.90
2023-03-29T15:49:25.865Z,22.97
2023-03-29T15:51:53.869Z,22.88
2023-03-29T15:54:21.597Z,22.87
2023-03-29T15:56:54.401Z,22.85
2023-03-29T15:59:21.763Z,22.84
2023-03-29T16:01:48.985Z,22.80
2023-03-29T16:04:18.369Z,22.79
2023-03-29T16:06:47.322Z,22.80
2023-03-29T16:09:14.423Z,22.80
2023-03-29T16:11:42.498Z,22.76
2023-03-29T16:14:25.051Z,22.78
2023-03-29T16:16:52.172Z,22.81
2023-03-29T16:19:19.501Z,22.76
2023-03-29T16:21:46.035Z,22.79
2023-03-29T16:24:18.588Z,22.78
2023-03-29T16:26:45.778Z,22.75
2023-03-29T16:29:12.637Z,22.76
2023-03-29T16:31:39.204Z,22.70
2023-03-29T16:34:06.151Z,22.71
2023-03-29T16:36:32.696Z,22.67
2023-03-29T16:38:59.946Z,22.64
2023-03-29T16:41:26.476Z,22.63
2023-03-29T16:43:53.253Z,22.59
2023-03-29T16:46:19.804Z,22.54
2023-03-29T16:48:46.324Z,22.22
2023-03-29T16:51:12.831Z,22.31
2023-03-29T16:53:39.529Z,22.30
2023-03-29T16:56:06.504Z,21.91
2023-03-29T16:58:33.060Z,22.13
2023-03-29T17:01:07.727Z,22.13
2023-03-29T17:03:35.684Z,22.07
2023-03-29T17:06:02.829Z,22.02
2023-03-29T17:08:29.953Z,21.95
2023-03-29T17:10:56.610Z,21.90
2023-03-29T17:13:23.750Z,21.74
2023-03-29T17:15:51.275Z,21.61
2023-03-29T17:18:18.752Z,20.78
2023-03-29T17:20:45.317Z,20.81
2023-03-29T17:23:12.332Z,20.10
2023-03-29T17:25:38.992Z,20.78
2023-03-29T17:28:05.586Z,21.02
2023-03-29T17:30:34.246Z,21.13
2023-03-29T17:33:01.013Z,21.22
2023-03-29T17:35:27.708Z,21.24
2023-03-29T17:37:54.357Z,21.25
2023-03-29T17:40:21.439Z,21.25
2023-03-29T17:42:47.969Z,21.25
2023-03-29T17:45:15.810Z,21.19
2023-03-29T17:47:42.275Z,21.14
2023-03-29T17:50:11.258Z,21.13
2023-03-29T17:52:37.865Z,21.11
2023-03-29T17:55:04.554Z,21.07
2023-03-29T17:57:31.015Z,21.04
2023-03-29T17:59:57.505Z,20.98
2023-03-29T18:02:24.578Z,20.94
2023-03-29T18:04:51.141Z,20.85
2023-03-29T18:07:17.651Z,20.84
2023-03-29T18:09:44.147Z,20.75
2023-03-29T18:12:10.645Z,20.74
2023-03-29T18:14:37.136Z,20.64
2023-03-29T18:17:03.681Z,20.67
2023-03-29T18:19:30.311Z,20.63
2023-03-29T18:21:56.798Z,20.60
2023-03-29T18:24:23.299Z,20.52
2023-03-29T18:26:49.794Z,20.51
2023-03-29T18:29:16.286Z,20.25
2023-03-29T18:31:42.953Z,20.27
2023-03-29T18:34:09.464Z,20.21
2023-03-29T18:36:35.925Z,20.26
2023-03-29T18:39:02.614Z,20.25
2023-03-29T18:41:29.090Z,20.26
2023-03-29T18:43:55.566Z,20.20
2023-03-29T18:46:22.217Z,19.18
2023-03-29T18:48:48.755Z,18.71
2023-03-29T18:51:15.271Z,18.75
2023-03-29T18:53:41.774Z,19.37
2023-03-29T18:56:08.948Z,19.62
2023-03-29T18:58:35.431Z,19.76
2023-03-29T19:01:03.737Z,19.86
2023-03-29T19:03:31.936Z,19.92
2023-03-29T19:05:58.586Z,19.95
2023-03-29T19:08:25.311Z,20.01
2023-03-29T19:10:53.104Z,19.99
2023-03-29T19:13:19.926Z,19.98
2023-03-29T19:15:46.520Z,20.01
2023-03-29T19:18:13.037Z,20.02
2023-03-29T19:20:39.534Z,19.80
2023-03-29T19:23:06.030Z,19.65
2023-03-29T19:25:32.590Z,18.47
2023-03-29T19:27:59.987Z,19.12
2023-03-29T19:30:26.591Z,19.47
2023-03-29T19:32:53.109Z,19.58
2023-03-29T19:35:20.203Z,19.65
2023-03-29T19:37:46.699Z,19.77
2023-03-29T19:40:13.381Z,19.77
2023-03-29T19:42:40.590Z,19.88
2023-03-29T19:45:08.478Z,19.92
2023-03-29T19:47:35.667Z,19.94
2023-03-29T19:50:02.606Z,19.89
2023-03-29T19:52:29.873Z,19.93
2023-03-29T19:54:57.146Z,19.62
2023-03-29T19:57:23.956Z,19.63
2023-03-29T19:59:51.023Z,18.51
2023-03-29T20:02:17.584Z,18.60
2023-03-29T20:04:44.377Z,19.03
2023-03-29T20:07:11.090Z,18.84
2023-03-29T20:09:37.622Z,19.12
2023-03-29T20:12:04.721Z,19.35
2023-03-29T20:14:31.394Z,19.49
2023-03-29T20:16:57.896Z,19.57
2023-03-29T20:19:24.419Z,19.15
2023-03-29T20:21:52.549Z,19.44
2023-03-29T20:24:19.012Z,19.48
2023-03-29T20:26:45.495Z,19.56
2023-03-29T20:29:12.003Z,19.44
2023-03-29T20:31:38.639Z,19.51
2023-03-29T20:34:05.164Z,19.55
2023-03-29T20:36:31.749Z,19.55
2023-03-29T20:38:58.484Z,19.55
2023-03-29T20:41:25.467Z,19.54
2023-03-29T20:43:52.144Z,19.50
2023-03-29T20:46:18.755Z,19.48
2023-03-29T20:48:45.280Z,19.42
2023-03-29T20:51:12.435Z,19.38
2023-03-29T20:53:38.926Z,19.43
2023-03-29T20:56:05.551Z,19.46
2023-03-29T20:58:32.072Z,19.43
2023-03-29T21:00:58.531Z,19.46
2023-03-29T21:03:25.185Z,19.47
2023-03-29T21:05:54.842Z,19.46
2023-03-29T21:08:21.459Z,19.48
2023-03-29T21:10:47.945Z,19.47
2023-03-29T21:13:14.462Z,19.36
2023-03-29T21:15:41.016Z,19.34
2023-03-29T21:18:07.546Z,19.35
2023-03-29T21:20:36.411Z,19.28
2023-03-29T21:23:02.982Z,19.02
2023-03-29T21:25:29.464Z,18.60
2023-03-29T21:27:55.960Z,18.83
2023-03-29T21:30:22.450Z,19.05
2023-03-29T21:32:48.922Z,18.71
2023-03-29T21:35:15.491Z,18.71
2023-03-29T21:37:41.987Z,18.26
2023-03-29T21:40:08.838Z,18.21
2023-03-29T21:42:35.373Z,18.60
2023-03-29T21:45:02.282Z,18.83
2023-03-29T21:47:28.875Z,19.02
2023-03-29T21:49:55.508Z,19.06
2023-03-29T21:52:21.987Z,19.11
2023-03-29T21:54:48.485Z,18.84
2023-03-29T21:57:15.033Z,18.87
2023-03-29T21:59:41.524Z,19.09
2023-03-29T22:02:08.109Z,19.15
2023-03-29T22:04:37.153Z,18.69
2023-03-29T22:07:05.229Z,19.10
2023-03-29T22:09:33.233Z,19.15
2023-03-29T22:11:59.970Z,19.24
2023-03-29T22:14:26.506Z,19.21
2023-03-29T22:16:53.035Z,19.25
2023-03-29T22:19:19.539Z,19.31
2023-03-29T22:21:46.040Z,19.34
2023-03-29T22:24:12.515Z,19.35
2023-03-29T22:26:38.962Z,19.34
2023-03-29T22:29:05.450Z,19.34
2023-03-29T22:31:32.629Z,19.03
2023-03-29T22:33:59.178Z,19.27
2023-03-29T22:36:28.592Z,19.29
2023-03-29T22:38:55.867Z,19.30
2023-03-29T22:41:24.657Z,19.32
2023-03-29T22:43:52.576Z,19.33
2023-03-29T22:46:19.739Z,19.27
2023-03-29T22:48:47.130Z,19.18
2023-03-29T22:51:14.280Z,19.24
2023-03-29T22:53:40.787Z,19.24
2023-03-29T22:56:07.939Z,19.19
2023-03-29T22:58:35.614Z,19.27
2023-03-29T23:01:02.225Z,19.16
2023-03-29T23:03:28.857Z,19.25
2023-03-29T23:05:58.241Z,19.30
2023-03-29T23:08:25.087Z,19.31
2023-03-29T23:10:52.393Z,19.29
2023-03-29T23:13:19.650Z,19.24
2023-03-29T23:15:48.522Z,19.25
2023-03-29T23:18:16.464Z,19.24
2023-03-29T23:20:42.995Z,19.21
2023-03-29T23:23:09.815Z,19.27
2023-03-29T23:25:36.525Z,19.25
2023-03-29T23:28:03.869Z,19.28
2023-03-29T23:30:30.421Z,19.13
2023-03-29T23:32:56.905Z,19.15
2023-03-29T23:35:23.420Z,18.89
2023-03-29T23:37:49.951Z,18.88
2023-03-29T23:40:16.493Z,18.69
2023-03-29T23:42:45.408Z,18.55
2023-03-29T23:45:15.129Z,18.34
2023-03-29T23:47:43.364Z,18.50
2023-03-29T23:50:12.396Z,18.50
2023-03-29T23:52:40.698Z,18.34
2023-03-29T23:55:12.235Z,18.39
2023-03-29T23:57:38.722Z,18.24
